Time;durP1;ratioP1;P1;durP2;ratioP2;P2;SDS_P1;SDS_P2;PMS_P1;PMS_P2;Temp;Humidity;BMP_temperature;BMP_pressure;BME280_temperature;BME280_humidity;BME280_pressure;Samples;Min_cycle;Max_cycle;Signal;HPM_P1;HPM_P2
2023/07/13 00:00:11;;;;;;;;;1.67;1.67;;;;;28.44;34.48;101599.13;5095576;27;45288;-75
2023/07/13 00:02:37;;;;;;;;;2.00;1.33;;;;;28.37;34.20;101586.56;5111805;27;45793;-74
2023/07/13 00:05:02;;;;;;;;;1.00;1.00;;;;;28.42;34.46;101590.47;5096079;27;45477;-74
2023/07/13 00:07:28;;;;;;;;;1.00;1.00;;;;;28.45;34.82;101592.75;5112011;27;45367;-74
2023/07/13 00:09:53;;;;;;;;;0.67;0.67;;;;;28.44;34.51;101596.44;5096003;27;45249;-74
2023/07/13 00:12:38;;;;;;;;;1.00;1.00;;;;;28.46;34.95;101591.75;5095771;27;45330;-74
2023/07/13 00:15:07;;;;;;;;;0.00;0.00;;;;;28.44;34.26;101594.59;5095813;27;45594;-75
2023/07/13 00:17:32;;;;;;;;;2.00;1.00;;;;;28.41;34.40;101586.97;5095731;27;45288;-74
2023/07/13 00:19:58;;;;;;;;;1.00;1.00;;;;;28.44;34.24;101588.41;5095850;27;45296;-74
2023/07/13 00:22:26;;;;;;;;;1.00;1.00;;;;;28.47;34.23;101588.84;5095864;27;45281;-74
2023/07/13 00:24:57;;;;;;;;;2.00;2.00;;;;;28.46;34.37;101605.94;5095970;27;45251;-75
2023/07/13 00:27:26;;;;;;;;;1.00;0.00;;;;;28.45;34.68;101590.91;5095750;27;45538;-74
2023/07/13 00:29:52;;;;;;;;;1.33;1.33;;;;;28.48;34.24;101597.69;5095225;27;46164;-74
2023/07/13 00:32:18;;;;;;;;;1.00;1.00;;;;;28.47;34.70;101591.53;5095545;27;45530;-74
2023/07/13 00:34:43;;;;;;;;;2.67;1.67;;;;;28.48;34.36;101595.03;5095677;27;45467;-74
2023/07/13 00:37:09;;;;;;;;;1.00;1.00;;;;;28.47;34.47;101588.03;5095603;27;45220;-75
2023/07/13 00:39:35;;;;;;;;;2.00;1.00;;;;;28.49;34.70;101591.34;5095556;27;45299;-74
2023/07/13 00:42:02;;;;;;;;;1.33;1.33;;;;;28.48;34.39;101587.81;5095679;27;45348;-75
2023/07/13 00:44:28;;;;;;;;;1.33;1.33;;;;;28.47;34.74;101580.81;5095306;27;45461;-74
2023/07/13 00:46:55;;;;;;;;;2.00;1.00;;;;;28.48;34.86;101589.69;5095588;27;45502;-74
2023/07/13 00:49:22;;;;;;;;;0.00;0.00;;;;;28.51;34.37;101594.63;5096659;27;47141;-74
2023/07/13 00:51:55;;;;;;;;;1.33;1.00;;;;;28.51;34.46;101591.94;5098812;27;45393;-74
2023/07/13 00:54:29;;;;;;;;;1.00;1.00;;;;;28.51;34.74;101591.94;5098830;27;45351;-75
2023/07/13 00:56:58;;;;;;;;;1.00;1.00;;;;;28.51;34.72;101587.41;5098553;27;45357;-74
2023/07/13 00:59:25;;;;;;;;;2.33;1.00;;;;;28.51;34.41;101590.09;5099019;27;45329;-75
2023/07/13 01:01:50;;;;;;;;;1.33;0.00;;;;;28.51;34.89;101591.94;5098719;27;45440;-75
2023/07/13 01:04:17;;;;;;;;;2.67;2.00;;;;;28.54;34.47;101590.72;5098865;27;45352;-75
2023/07/13 01:06:43;;;;;;;;;1.33;1.33;;;;;28.53;34.92;101592.56;5098808;27;45453;-74
2023/07/13 01:09:10;;;;;;;;;2.00;2.00;;;;;28.54;34.74;101598.75;5098500;27;47465;-74
2023/07/13 01:11:36;;;;;;;;;1.00;1.00;;;;;28.54;34.89;101593.38;5098076;27;45517;-74
2023/07/13 01:14:03;;;;;;;;;1.00;1.00;;;;;28.52;34.35;101599.75;5098602;27;45419;-75
2023/07/13 01:16:32;;;;;;;;;0.00;0.00;;;;;28.54;34.39;101601.41;5098648;27;45396;-74
2023/07/13 01:18:58;;;;;;;;;0.33;0.33;;;;;28.54;34.74;101607.59;5098078;27;46337;-74
2023/07/13 01:21:24;;;;;;;;;0.67;0.67;;;;;28.53;34.60;101611.28;5098391;27;45364;-74
2023/07/13 01:23:49;;;;;;;;;1.00;0.67;;;;;28.51;34.84;101611.50;5098705;27;45358;-74
2023/07/13 01:26:15;;;;;;;;;2.67;1.00;;;;;28.51;34.76;101624.91;5098082;27;45313;-74
2023/07/13 01:28:40;;;;;;;;;1.33;1.33;;;;;28.53;34.69;101624.69;5098313;27;45387;-75
2023/07/13 01:31:06;;;;;;;;;2.00;2.00;;;;;28.50;34.42;101615.19;5098510;27;45350;-74
2023/07/13 01:33:31;;;;;;;;;2.00;2.00;;;;;28.49;34.48;101621.59;5098299;27;45387;-75
2023/07/13 01:35:59;;;;;;;;;3.00;1.00;;;;;28.50;35.15;101622.41;5098530;27;45250;-75
2023/07/13 01:38:25;;;;;;;;;0.67;0.67;;;;;28.52;35.07;101634.56;5098032;27;46391;-74
2023/07/13 01:40:52;;;;;;;;;1.00;1.00;;;;;28.51;34.62;101637.44;5097886;27;45424;-74
2023/07/13 01:43:18;;;;;;;;;0.00;0.00;;;;;28.54;34.74;101631.69;5098253;27;45455;-74
2023/07/13 01:45:44;;;;;;;;;1.00;1.00;;;;;28.52;35.14;101628.41;5098272;27;45396;-74
2023/07/13 01:48:10;;;;;;;;;2.00;2.00;;;;;28.50;35.08;101625.06;5097918;27;45403;-74
2023/07/13 01:50:36;;;;;;;;;1.00;1.00;;;;;28.52;35.19;101634.56;5097903;27;46062;-75
2023/07/13 01:53:02;;;;;;;;;1.33;1.33;;;;;28.54;34.82;101633.53;5098038;27;45373;-74
2023/07/13 01:55:28;;;;;;;;;1.00;1.00;;;;;28.51;34.69;101622.22;5097771;27;45352;-74
2023/07/13 01:57:53;;;;;;;;;1.00;1.00;;;;;28.53;34.90;101622.00;5096332;27;46530;-74
2023/07/13 02:00:19;;;;;;;;;1.00;0.33;;;;;28.50;34.71;101611.69;5097273;27;45369;-75
2023/07/13 02:02:44;;;;;;;;;0.00;0.00;;;;;28.54;34.92;101626.34;5097843;27;45330;-74
2023/07/13 02:05:10;;;;;;;;;1.00;1.00;;;;;28.53;35.13;101619.31;5097915;27;45321;-75
2023/07/13 02:07:35;;;;;;;;;1.00;1.00;;;;;28.55;34.74;101614.56;5097718;27;47329;-74
2023/07/13 02:10:01;;;;;;;;;1.00;1.00;;;;;28.55;34.74;101619.13;5097387;27;45401;-74
2023/07/13 02:12:26;;;;;;;;;0.67;0.67;;;;;28.57;34.75;101619.75;5097682;27;45349;-74
2023/07/13 02:14:51;;;;;;;;;0.00;0.00;;;;;28.57;35.30;101620.56;5096372;27;45428;-75
2023/07/13 02:17:17;;;;;;;;;1.00;1.00;;;;;28.57;34.46;101619.75;5097226;27;45757;-74
2023/07/13 02:19:42;;;;;;;;;1.00;1.00;;;;;28.58;34.94;101624.06;5097525;27;45360;-74
2023/07/13 02:22:07;;;;;;;;;1.00;1.00;;;;;28.58;34.93;101616.03;5097697;27;45357;-74
2023/07/13 02:24:33;;;;;;;;;1.00;1.00;;;;;28.54;34.74;101610.28;5097227;27;45312;-74
2023/07/13 02:26:58;;;;;;;;;1.00;1.00;;;;;28.56;35.24;101610.06;5097416;27;46206;-74
2023/07/13 02:29:23;;;;;;;;;2.00;0.00;;;;;28.56;34.95;101610.06;5097498;27;45361;-74
2023/07/13 02:31:49;;;;;;;;;0.00;0.00;;;;;28.52;34.84;101598.97;5097660;27;45522;-74
2023/07/13 02:34:14;;;;;;;;;0.00;0.00;;;;;28.57;34.92;101609.03;5097549;27;45369;-74
2023/07/13 02:36:40;;;;;;;;;1.00;1.00;;;;;28.50;34.97;101593.78;5097364;27;45368;-74
2023/07/13 02:39:06;;;;;;;;;1.33;0.00;;;;;28.54;34.74;101593.38;5096892;27;45420;-74
2023/07/13 02:41:31;;;;;;;;;1.00;1.00;;;;;28.51;35.07;101590.09;5097269;27;45416;-74
2023/07/13 02:44:03;;;;;;;;;0.67;0.67;;;;;28.55;35.01;101597.72;5097415;27;45247;-74
2023/07/13 02:46:30;;;;;;;;;2.00;1.00;;;;;28.56;34.67;101602.03;5096933;27;46314;-75
2023/07/13 02:48:55;;;;;;;;;0.33;0.33;;;;;28.56;34.97;101604.69;5097135;27;45487;-74
2023/07/13 02:51:20;;;;;;;;;2.00;1.00;;;;;28.49;34.75;101602.88;5096947;27;45409;-75
2023/07/13 02:53:46;;;;;;;;;0.67;0.67;;;;;28.55;35.02;101611.91;5096897;27;45317;-74
2023/07/13 02:56:11;;;;;;;;;1.00;1.00;;;;;28.55;35.33;101605.75;5096891;27;47381;-74
2023/07/13 02:58:38;;;;;;;;;3.00;1.00;;;;;28.53;34.67;101603.25;5096872;27;45420;-75
2023/07/13 03:01:07;;;;;;;;;1.00;1.00;;;;;28.55;35.02;101611.91;5097088;27;45337;-74
2023/07/13 03:03:33;;;;;;;;;0.67;0.67;;;;;28.55;35.25;101608.44;5096826;27;45288;-75
2023/07/13 03:06:02;;;;;;;;;2.00;2.00;;;;;28.54;34.92;101610.28;5096642;27;47138;-75
2023/07/13 03:08:27;;;;;;;;;1.00;1.00;;;;;28.55;34.68;101609.22;5096499;27;45295;-74
2023/07/13 03:11:03;;;;;;;;;1.00;1.00;;;;;28.57;35.05;101614.38;5096682;27;45293;-74
2023/07/13 03:13:29;;;;;;;;;0.67;0.67;;;;;28.52;34.84;101602.44;5096183;27;45516;-74
2023/07/13 03:15:54;;;;;;;;;2.00;1.00;;;;;28.56;35.35;101612.72;5096509;27;46799;-74
2023/07/13 03:18:20;;;;;;;;;0.00;0.00;;;;;28.53;35.02;101611.28;5096494;27;45372;-74
2023/07/13 03:20:45;;;;;;;;;0.67;0.67;;;;;28.56;34.82;101618.91;5096788;27;45188;-74
2023/07/13 03:23:10;;;;;;;;;3.00;1.67;;;;;28.54;35.43;101610.28;5096414;27;45863;-75
2023/07/13 03:25:36;;;;;;;;;1.00;1.00;;;;;28.57;35.43;101615.22;5095262;27;47312;-75
2023/07/13 03:28:01;;;;;;;;;1.00;1.00;;;;;28.57;35.04;101612.53;5096477;27;45365;-75
2023/07/13 03:30:26;;;;;;;;;0.33;0.33;;;;;28.55;35.39;101608.44;5096800;27;45349;-74
2023/07/13 03:32:52;;;;;;;;;2.00;1.00;;;;;28.57;34.88;101617.06;5096504;27;45370;-74
2023/07/13 03:35:17;;;;;;;;;1.00;1.00;;;;;28.58;35.79;101608.81;5096403;27;49811;-75
2023/07/13 03:37:42;;;;;;;;;2.00;2.00;;;;;28.58;34.75;101611.50;5096014;27;45297;-73
2023/07/13 03:40:10;;;;;;;;;1.00;1.00;;;;;28.58;35.44;101608.81;5096422;27;45365;-74
2023/07/13 03:42:35;;;;;;;;;2.00;2.00;;;;;28.59;34.74;101618.50;5096384;27;45287;-74
2023/07/13 03:45:01;;;;;;;;;2.00;0.33;;;;;28.60;34.85;101617.47;5096244;27;46209;-75
2023/07/13 03:47:26;;;;;;;;;0.00;0.00;;;;;28.59;34.98;101615.84;5096313;27;45325;-74
2023/07/13 03:49:51;;;;;;;;;1.00;1.00;;;;;28.59;35.44;101617.69;5096635;27;45357;-75
2023/07/13 03:52:17;;;;;;;;;0.33;0.33;;;;;28.59;35.23;101625.72;5095777;27;45424;-74
2023/07/13 03:54:42;;;;;;;;;0.00;0.00;;;;;28.53;34.98;101622.00;5096281;27;45312;-74
2023/07/13 03:57:08;;;;;;;;;0.00;0.00;;;;;28.59;35.62;101626.53;5096114;27;45293;-74
2023/07/13 03:59:33;;;;;;;;;1.00;1.00;;;;;28.58;35.25;101632.91;5096236;27;45479;-75
2023/07/13 04:01:59;;;;;;;;;2.00;0.67;;;;;28.57;35.60;101642.00;5096210;27;45255;-74
2023/07/13 04:04:24;;;;;;;;;0.67;0.67;;;;;28.56;35.63;101640.34;5096403;27;47156;-74
2023/07/13 04:06:52;;;;;;;;;2.00;1.00;;;;;28.57;35.02;101643.84;5095710;27;45433;-74
2023/07/13 04:09:18;;;;;;;;;0.00;0.00;;;;;28.56;35.56;101642.19;5096281;27;45359;-74
2023/07/13 04:11:43;;;;;;;;;1.00;1.00;;;;;28.56;35.28;101643.00;5095848;27;45555;-74
2023/07/13 04:14:09;;;;;;;;;1.00;0.00;;;;;28.55;35.36;101637.88;5096017;27;46455;-75
2023/07/13 04:16:34;;;;;;;;;1.00;1.00;;;;;28.55;35.57;101633.31;5094531;27;45621;-74
2023/07/13 04:18:59;;;;;;;;;1.00;1.00;;;;;28.55;35.07;101640.53;5095839;27;45336;-75
2023/07/13 04:21:30;;;;;;;;;0.33;0.33;;;;;28.55;35.37;101645.91;5095742;27;45352;-74
2023/07/13 04:23:55;;;;;;;;;1.00;1.00;;;;;28.54;35.56;101647.75;5098074;27;46181;-74
2023/07/13 04:26:22;;;;;;;;;0.00;0.00;;;;;28.57;35.26;101644.66;5099333;27;45429;-75
2023/07/13 04:28:48;;;;;;;;;1.67;1.67;;;;;28.57;35.22;101652.69;5099547;27;45304;-74
2023/07/13 04:31:14;;;;;;;;;1.00;1.00;;;;;28.56;35.87;101655.56;5099331;27;45270;-75
2023/07/13 04:33:39;;;;;;;;;4.00;1.00;;;;;28.56;35.13;101659.06;5098918;27;45812;-75
2023/07/13 04:36:05;;;;;;;;;1.00;1.00;;;;;28.55;35.43;101656.59;5098911;27;45394;-75
2023/07/13 04:38:32;;;;;;;;;1.00;1.00;;;;;28.54;35.55;101652.28;5099235;27;45347;-75
2023/07/13 04:41:01;;;;;;;;;0.67;0.67;;;;;28.55;35.03;101654.72;5099417;27;45369;-74
2023/07/13 04:43:27;;;;;;;;;1.00;1.00;;;;;28.58;35.13;101659.69;5098956;27;46428;-74
2023/07/13 04:45:53;;;;;;;;;0.00;0.00;;;;;28.58;35.48;101659.69;5099156;27;45409;-75
2023/07/13 04:48:19;;;;;;;;;0.33;0.33;;;;;28.59;35.41;101664.00;5097830;27;45340;-74
2023/07/13 04:50:45;;;;;;;;;1.00;1.00;;;;;28.60;35.72;101667.50;5098711;27;45322;-74
2023/07/13 04:53:11;;;;;;;;;3.00;1.00;;;;;28.59;35.00;101672.03;5098877;27;45943;-74
2023/07/13 04:55:37;;;;;;;;;0.33;0.33;;;;;28.60;35.29;101664.81;5098786;27;45449;-75
2023/07/13 04:58:03;;;;;;;;;1.00;1.00;;;;;28.58;35.71;101670.38;5098916;27;45297;-75
2023/07/13 05:00:29;;;;;;;;;2.00;2.00;;;;;28.57;35.32;101660.72;5097485;27;45283;-75
2023/07/13 05:02:57;;;;;;;;;0.67;0.67;;;;;28.60;35.44;101665.66;5114532;27;46502;-74
2023/07/13 05:05:23;;;;;;;;;1.00;1.00;;;;;28.59;35.23;101664.00;5098393;27;45361;-75
2023/07/13 05:07:48;;;;;;;;;1.67;1.67;;;;;28.55;35.60;101659.28;5098812;27;45354;-75
2023/07/13 05:10:14;;;;;;;;;1.00;1.00;;;;;28.59;35.48;101668.53;5098749;27;45398;-74
2023/07/13 05:12:39;;;;;;;;;2.00;1.00;;;;;28.59;35.44;101672.03;5098250;27;46073;-74
2023/07/13 05:15:05;;;;;;;;;1.00;1.00;;;;;28.59;35.41;101676.56;5098614;27;45305;-75
2023/07/13 05:17:31;;;;;;;;;1.33;1.33;;;;;28.60;35.73;101670.16;5099359;27;45318;-74
2023/07/13 05:19:56;;;;;;;;;0.00;0.00;;;;;28.60;35.65;101683.56;5098284;27;45386;-74
2023/07/13 05:22:21;;;;;;;;;0.33;0.33;;;;;28.59;35.56;101682.75;5098061;27;55510;-75
2023/07/13 05:24:47;;;;;;;;;2.00;0.00;;;;;28.57;35.83;101684.81;5097961;27;58610;-74
2023/07/13 05:27:12;;;;;;;;;1.33;1.00;;;;;28.59;35.55;101689.97;5098536;27;45284;-74
2023/07/13 05:29:38;;;;;;;;;1.33;1.33;;;;;28.59;35.35;101687.28;5098574;27;45321;-75
2023/07/13 05:32:04;;;;;;;;;1.00;1.00;;;;;28.57;35.70;101682.13;5098180;27;46392;-75
2023/07/13 05:34:29;;;;;;;;;1.00;1.00;;;;;28.55;35.32;101672.66;5097216;27;45274;-75
2023/07/13 05:36:55;;;;;;;;;1.00;1.00;;;;;28.58;35.74;101677.59;5098360;27;45580;-75
2023/07/13 05:39:20;;;;;;;;;1.00;1.00;;;;;28.57;35.50;101681.31;5098449;27;45707;-75
2023/07/13 05:41:45;;;;;;;;;0.00;0.00;;;;;28.57;35.18;101682.13;5098121;27;45941;-74
2023/07/13 05:44:11;;;;;;;;;2.00;2.00;;;;;28.57;35.11;101675.97;5098128;27;45633;-74
2023/07/13 05:46:36;;;;;;;;;1.00;1.00;;;;;28.59;35.31;101684.59;5098282;27;45355;-74
2023/07/13 05:49:02;;;;;;;;;1.00;1.00;;;;;28.58;35.31;101682.94;5097834;27;45462;-75
2023/07/13 05:51:28;;;;;;;;;0.67;0.67;;;;;28.59;35.69;101687.28;5097797;27;46136;-74
2023/07/13 05:53:54;;;;;;;;;1.00;1.00;;;;;28.57;35.58;101684.81;5097854;27;45377;-74
2023/07/13 05:56:19;;;;;;;;;0.67;0.67;;;;;28.59;35.37;101690.78;5114012;27;45397;-74
2023/07/13 05:58:44;;;;;;;;;1.00;1.00;;;;;28.61;35.98;101687.88;5098031;27;45373;-75
2023/07/13 06:01:12;;;;;;;;;2.00;1.00;;;;;28.62;35.72;101693.03;5097911;27;45990;-79
2023/07/13 06:03:38;;;;;;;;;0.00;0.00;;;;;28.58;35.59;101685.63;5097708;27;45402;-76
2023/07/13 06:06:05;;;;;;;;;0.00;0.00;;;;;28.62;35.64;101697.59;5097892;27;45290;-77
2023/07/13 06:08:31;;;;;;;;;1.00;1.00;;;;;28.62;35.42;101695.72;5097903;27;45411;-76
2023/07/13 06:11:04;;;;;;;;;0.33;0.33;;;;;28.66;35.68;101698.81;5097517;27;45422;-74
2023/07/13 06:13:29;;;;;;;;;1.00;1.00;;;;;28.60;35.59;101695.09;5097580;27;45299;-75
2023/07/13 06:15:54;;;;;;;;;2.00;1.00;;;;;28.68;35.41;101709.31;5096191;27;48518;-75
2023/07/13 06:18:20;;;;;;;;;1.00;1.00;;;;;28.69;35.60;101711.78;5086423;27;45417;-75
2023/07/13 06:20:45;;;;;;;;;2.00;1.00;;;;;28.67;35.56;101705.00;5095285;27;52369;-76
2023/07/13 06:23:10;;;;;;;;;2.67;2.00;;;;;28.71;36.40;101714.25;5095126;27;45845;-77
2023/07/13 06:25:35;;;;;;;;;1.00;1.00;;;;;28.71;35.99;101717.75;5096969;27;45390;-77
2023/07/13 06:28:01;;;;;;;;;2.00;1.00;;;;;28.71;35.81;101720.44;5097108;27;45338;-76
2023/07/13 06:30:26;;;;;;;;;2.00;2.00;;;;;28.69;36.55;101719.00;5096576;27;46061;-79
2023/07/13 06:32:52;;;;;;;;;4.33;2.00;;;;;28.67;35.96;101724.56;5097146;27;45378;-79
2023/07/13 06:35:18;;;;;;;;;1.00;1.00;;;;;28.51;35.92;101718.56;5097613;27;45762;-80
2023/07/13 06:37:43;;;;;;;;;2.00;1.00;;;;;28.36;35.39;101728.59;5088980;27;45437;-80
2023/07/13 06:40:09;;;;;;;;;2.33;1.00;;;;;28.18;35.89;101728.13;5102440;27;48112;-77
2023/07/13 06:42:34;;;;;;;;;3.67;1.67;;;;;28.02;36.40;101721.31;5106953;27;45856;-79
2023/07/13 06:44:59;;;;;;;;;2.00;2.00;;;;;27.81;36.54;101711.53;5096346;27;45369;-78
2023/07/13 06:47:25;;;;;;;;;1.67;1.00;;;;;27.70;36.47;101716.41;5094295;27;45472;-79
2023/07/13 06:49:50;;;;;;;;;1.00;1.00;;;;;27.55;36.89;101716.53;5102412;27;45862;-79
2023/07/13 06:52:15;;;;;;;;;1.67;1.00;;;;;27.44;37.22;101720.56;5095177;27;45440;-78
2023/07/13 06:54:41;;;;;;;;;3.00;2.00;;;;;27.34;36.67;101717.44;5094664;27;47653;-79
2023/07/13 06:57:07;;;;;;;;;2.00;2.00;;;;;27.25;36.93;101720.25;5093897;27;45626;-79
2023/07/13 06:59:32;;;;;;;;;3.00;1.00;;;;;27.17;37.34;101715.03;5094714;27;46989;-79
2023/07/13 07:01:57;;;;;;;;;3.67;2.00;;;;;27.09;37.74;101717.84;5095795;27;45344;-79
2023/07/13 07:04:23;;;;;;;;;3.00;2.00;;;;;27.02;37.44;101729.28;5095039;27;45399;-79
2023/07/13 07:06:48;;;;;;;;;3.67;2.00;;;;;26.98;38.00;101725.38;5095033;27;45393;-79
2023/07/13 07:09:14;;;;;;;;;2.00;2.00;;;;;26.93;37.66;101720.59;5094972;27;45933;-78
2023/07/13 07:11:39;;;;;;;;;3.67;3.00;;;;;26.87;38.20;101732.06;5094786;27;45606;-79
2023/07/13 07:14:05;;;;;;;;;2.33;2.00;;;;;26.80;38.14;101728.50;5095024;27;45344;-79
2023/07/13 07:16:30;;;;;;;;;1.00;1.00;;;;;26.76;37.95;101730.72;5094886;27;45534;-79
2023/07/13 07:18:55;;;;;;;;;1.00;1.00;;;;;26.73;38.19;101739.09;5093570;27;45535;-78
2023/07/13 07:21:22;;;;;;;;;2.33;1.00;;;;;26.69;38.62;101749.34;5094992;27;45345;-79
2023/07/13 07:23:48;;;;;;;;;5.00;3.00;;;;;26.65;38.59;101752.59;5096707;27;45609;-78
2023/07/13 07:26:14;;;;;;;;;1.00;1.00;;;;;26.57;38.40;101740.19;5094682;27;45816;-78
2023/07/13 07:28:39;;;;;;;;;1.00;1.00;;;;;26.60;38.53;101753.13;5111344;27;47426;-78
2023/07/13 07:31:05;;;;;;;;;2.67;2.00;;;;;26.55;38.91;101759.03;5115388;27;45391;-79
2023/07/13 07:33:30;;;;;;;;;1.00;1.00;;;;;26.55;38.88;101760.88;5115463;27;45407;-79
2023/07/13 07:35:55;;;;;;;;;5.00;2.00;;;;;26.54;38.50;101764.59;5115260;27;45445;-79
2023/07/13 07:38:21;;;;;;;;;1.00;1.00;;;;;26.47;38.31;101752.00;5110173;27;45973;-79
2023/07/13 07:40:46;;;;;;;;;0.33;0.33;;;;;26.47;38.66;101767.16;5094462;27;45751;-78
2023/07/13 07:43:13;;;;;;;;;2.00;2.00;;;;;26.46;39.13;101771.69;5094584;27;45338;-79
2023/07/13 07:45:39;;;;;;;;;1.67;1.00;;;;;26.42;38.96;101767.69;5094609;27;45439;-79
2023/07/13 07:48:06;;;;;;;;;1.00;1.00;;;;;26.41;39.38;101771.41;5096020;27;46190;-78
2023/07/13 07:50:31;;;;;;;;;1.00;1.00;;;;;26.38;39.13;101775.28;5114754;27;45496;-79
2023/07/13 07:52:57;;;;;;;;;1.33;1.00;;;;;26.38;38.95;101775.28;5094357;27;45503;-79
2023/07/13 07:55:25;;;;;;;;;2.67;1.00;;;;;26.34;38.91;101784.66;5094682;27;45388;-79
2023/07/13 07:57:51;;;;;;;;;1.67;1.33;;;;;26.37;39.26;101783.44;5094520;27;47026;-78
2023/07/13 08:00:17;;;;;;;;;2.00;1.00;;;;;26.29;39.51;101774.53;5097914;27;45561;-78
2023/07/13 08:02:43;;;;;;;;;2.00;1.00;;;;;26.33;39.45;101782.19;5098290;27;45498;-79
2023/07/13 08:05:09;;;;;;;;;0.67;0.67;;;;;26.34;39.39;101786.47;5097976;27;45455;-78
2023/07/13 08:07:36;;;;;;;;;1.00;1.00;;;;;26.34;39.03;101783.81;5097429;27;46028;-78
2023/07/13 08:10:01;;;;;;;;;3.00;1.33;;;;;26.35;39.47;101790.81;5098049;27;45789;-78
2023/07/13 08:12:27;;;;;;;;;1.00;1.00;;;;;26.34;39.40;101795.31;5097411;27;45582;-79
2023/07/13 08:14:53;;;;;;;;;1.67;1.00;;;;;26.32;39.64;101792.00;5098215;27;45548;-78
2023/07/13 08:17:19;;;;;;;;;2.00;2.00;;;;;26.33;39.62;101796.34;5105700;27;47014;-80
2023/07/13 08:19:45;;;;;;;;;2.00;1.00;;;;;26.33;39.14;101793.69;5097917;27;45764;-79
2023/07/13 08:22:10;;;;;;;;;4.00;2.33;;;;;26.37;39.18;101796.78;5097219;27;45434;-78
2023/07/13 08:24:35;;;;;;;;;2.00;1.00;;;;;26.43;39.69;101795.22;5099490;27;45444;-78
2023/07/13 08:27:00;;;;;;;;;3.33;1.33;;;;;26.54;39.63;101800.13;5117940;27;46057;-78
2023/07/13 08:29:26;;;;;;;;;4.00;2.00;;;;;26.66;39.44;101796.94;5118150;27;45467;-79
2023/07/13 08:31:51;;;;;;;;;1.00;1.00;;;;;26.78;39.33;101792.75;5118370;27;45415;-78
2023/07/13 08:34:17;;;;;;;;;2.67;2.67;;;;;26.82;38.71;101780.69;5115998;27;45350;-78
2023/07/13 08:36:42;;;;;;;;;1.33;1.00;;;;;26.94;38.56;101780.16;5097048;27;46571;-78
2023/07/13 08:39:08;;;;;;;;;2.67;2.00;;;;;27.09;39.07;101801.44;5097832;27;45471;-78
2023/07/13 08:41:35;;;;;;;;;1.00;1.00;;;;;27.18;38.82;101791.50;5096856;27;45417;-78
2023/07/13 08:44:04;;;;;;;;;1.00;1.00;;;;;27.26;38.69;101796.72;5097226;27;45591;-78
2023/07/13 08:46:40;;;;;;;;;4.00;2.00;;;;;27.34;38.02;101790.41;5104408;27;46034;-77
2023/07/13 08:49:14;;;;;;;;;3.33;2.00;;;;;27.41;37.92;101801.13;5117928;27;45348;-77
2023/07/13 08:51:49;;;;;;;;;3.00;1.00;;;;;27.48;38.03;101796.66;5107785;27;45421;-77
2023/07/13 08:54:35;;;;;;;;;2.00;2.00;;;;;27.56;37.87;101797.56;5097350;27;45530;-78
2023/07/13 08:57:12;;;;;;;;;2.33;1.33;;;;;27.63;37.83;101803.75;5095695;27;47439;-78
2023/07/13 08:59:37;;;;;;;;;2.00;2.00;;;;;27.67;38.35;101797.00;5096756;27;45490;-78
2023/07/13 09:02:12;;;;;;;;;1.67;1.67;;;;;27.74;37.97;101797.03;5096963;27;45582;-78
2023/07/13 09:04:45;;;;;;;;;2.00;1.00;;;;;27.79;37.50;101799.13;5096437;27;45445;-78
2023/07/13 09:07:29;;;;;;;;;2.00;2.00;;;;;27.84;37.52;101807.41;5096267;27;47035;-78
2023/07/13 09:10:31;;;;;;;;;3.00;1.00;;;;;27.89;37.78;101801.47;5094590;27;45760;-78
2023/07/13 09:13:05;;;;;;;;;3.00;2.00;;;;;27.93;37.17;101798.19;5097222;27;45504;-78
2023/07/13 09:15:35;;;;;;;;;1.67;1.33;;;;;27.95;37.53;101804.16;5096565;27;45306;-78
2023/07/13 09:18:13;;;;;;;;;2.00;2.00;;;;;28.00;37.11;101789.41;5094414;27;46108;-78
2023/07/13 09:20:49;;;;;;;;;4.00;2.00;;;;;28.04;37.03;101793.31;5096494;27;45500;-78
2023/07/13 09:23:19;;;;;;;;;3.33;2.00;;;;;28.06;36.94;101799.28;5096630;27;45708;-77
2023/07/13 09:25:50;;;;;;;;;1.67;1.67;;;;;28.10;36.92;101799.72;5096375;27;45506;-77
2023/07/13 09:28:26;;;;;;;;;2.00;2.00;;;;;28.10;37.53;101794.38;5096225;27;46940;-78
2023/07/13 09:31:05;;;;;;;;;2.67;2.00;;;;;28.16;37.11;101802.41;5096617;27;45473;-77
2023/07/13 09:33:31;;;;;;;;;1.33;1.33;;;;;28.19;37.01;101801.19;5096412;27;45398;-78
2023/07/13 09:36:00;;;;;;;;;2.33;2.33;;;;;28.21;37.03;101798.34;5096565;27;45630;-78
2023/07/13 09:38:31;;;;;;;;;1.00;1.00;;;;;28.23;37.47;101799.78;5096001;27;45677;-77
2023/07/13 09:41:15;;;;;;;;;1.00;1.00;;;;;28.25;37.40;101802.25;5096050;27;45417;-77
2023/07/13 09:44:20;;;;;;;;;2.00;2.00;;;;;28.25;36.64;101803.09;5096121;27;45522;-77
2023/07/13 09:46:53;;;;;;;;;2.00;1.67;;;;;28.28;36.97;101802.69;5095361;27;45370;-77
2023/07/13 09:49:23;;;;;;;;;3.00;1.67;;;;;28.30;36.45;101807.81;5096080;27;46241;-77
2023/07/13 09:51:58;;;;;;;;;2.00;2.00;;;;;28.32;37.08;101812.97;5095378;27;45380;-76
2023/07/13 09:54:25;;;;;;;;;3.67;2.00;;;;;28.33;36.92;101804.75;5111831;27;45405;-77
2023/07/13 09:57:01;;;;;;;;;4.00;3.00;;;;;28.35;36.93;101805.38;5115506;27;45467;-77
2023/07/13 09:59:31;;;;;;;;;1.00;1.00;;;;;28.37;37.25;101808.69;5101487;27;47189;-77
2023/07/13 10:01:56;;;;;;;;;1.00;1.00;;;;;28.39;36.35;101808.50;5095952;27;45518;-77
2023/07/13 10:04:31;;;;;;;;;3.00;2.00;;;;;28.39;37.07;101797.78;5096203;27;45437;-76
2023/07/13 10:07:08;;;;;;;;;1.00;1.00;;;;;28.45;37.17;101806.88;5095419;27;45419;-76
2023/07/13 10:09:33;;;;;;;;;1.00;1.00;;;;;28.49;36.16;101818.84;5094816;27;47521;-77
2023/07/13 10:11:58;;;;;;;;;2.00;2.00;;;;;28.50;36.86;101813.28;5095223;27;46300;-77
2023/07/13 10:14:25;;;;;;;;;0.00;0.00;;;;;28.52;37.28;101813.09;5096366;27;45436;-77
2023/07/13 10:16:58;;;;;;;;;2.67;2.00;;;;;28.55;36.54;101811.88;5094968;27;45587;-78
2023/07/13 10:19:26;;;;;;;;;2.00;2.00;;;;;28.54;37.15;101802.16;5095222;27;47225;-76
2023/07/13 10:21:59;;;;;;;;;2.33;2.33;;;;;28.57;36.87;101807.13;5095540;27;45344;-77
2023/07/13 10:24:38;;;;;;;;;1.33;1.33;;;;;28.61;36.79;101811.88;5107914;27;45396;-77
2023/07/13 10:27:27;;;;;;;;;1.67;1.00;;;;;28.63;36.91;101814.34;5106597;27;45558;-78
2023/07/13 10:30:11;;;;;;;;;3.67;3.67;;;;;28.65;36.89;101816.81;5103257;27;45785;-78
2023/07/13 10:32:37;;;;;;;;;0.67;0.67;;;;;28.63;37.41;101809.81;5114103;27;45431;-78
2023/07/13 10:35:03;;;;;;;;;3.00;2.00;;;;;28.68;36.79;101821.75;5084977;27;45424;-78
2023/07/13 10:37:36;;;;;;;;;2.33;2.33;;;;;28.67;37.32;101817.44;5091693;27;45420;-76
2023/07/13 10:40:05;;;;;;;;;1.33;1.33;;;;;28.64;36.58;101810.63;5111262;27;46995;-78
2023/07/13 10:42:38;;;;;;;;;2.00;2.00;;;;;28.70;36.56;101815.16;5097512;27;45470;-78
2023/07/13 10:45:21;;;;;;;;;1.67;1.67;;;;;28.71;36.72;101813.31;5092273;27;45516;-79
2023/07/13 10:47:50;;;;;;;;;4.33;2.00;;;;;28.72;36.87;101814.97;5091954;27;45499;-79
2023/07/13 10:50:20;;;;;;;;;1.00;1.00;;;;;28.77;37.10;101814.38;5094615;27;46087;-79
2023/07/13 10:52:50;;;;;;;;;3.00;1.67;;;;;28.78;37.37;101819.50;5107472;27;45377;-79
2023/07/13 10:55:42;;;;;;;;;1.67;1.67;;;;;28.79;37.00;101823.84;5096028;27;45437;-78
2023/07/13 10:58:27;;;;;;;;;2.67;2.00;;;;;28.80;37.22;101827.34;5089873;27;45457;-79
2023/07/13 11:01:06;;;;;;;;;2.00;2.00;;;;;28.79;37.30;101823.03;5079869;27;45457;-79
2023/07/13 11:03:45;;;;;;;;;1.00;1.00;;;;;28.76;37.30;101813.53;5094148;27;45572;-78
2023/07/13 11:06:13;;;;;;;;;1.00;1.00;;;;;28.78;37.43;101822.19;5091094;27;45466;-79
2023/07/13 11:08:58;;;;;;;;;2.00;2.00;;;;;28.78;37.01;101822.19;5086519;27;45439;-79
2023/07/13 11:11:23;;;;;;;;;0.33;0.33;;;;;28.79;37.41;101825.69;5093617;27;46104;-80
2023/07/13 11:13:49;;;;;;;;;1.00;1.00;;;;;28.79;37.41;101823.84;5094325;27;45421;-79
2023/07/13 11:16:17;;;;;;;;;1.00;1.00;;;;;28.79;37.65;101826.53;5094425;27;45423;-80
2023/07/13 11:18:48;;;;;;;;;3.00;1.00;;;;;28.79;37.33;101823.84;5093924;27;45567;-80
2023/07/13 11:21:26;;;;;;;;;1.33;1.33;;;;;28.81;37.03;101832.50;5093771;27;46304;-80
2023/07/13 11:23:54;;;;;;;;;2.00;2.00;;;;;28.81;37.66;101827.13;5094259;27;45546;-79
2023/07/13 11:26:39;;;;;;;;;1.67;1.67;;;;;28.84;37.07;101825.91;5094217;27;45741;-80